Time;durP1;ratioP1;P1;durP2;ratioP2;P2;SDS_P1;SDS_P2;PMS_P1;PMS_P2;Temp;Humidity;BMP_temperature;BMP_pressure;BME280_temperature;BME280_humidity;BME280_pressure;Samples;Min_cycle;Max_cycle;Signal;HPM_P1;HPM_P2
2022/07/01 00:00:50;;;;;;;1.50;0.60;;;19.80;99.90;;;;;;10326261;28;20733;-67
2022/07/01 00:05:51;;;;;;;2.60;0.33;;;19.70;99.90;;;;;;10344542;28;20229;-67
2022/07/01 00:10:51;;;;;;;0.53;0.27;;;19.70;99.90;;;;;;10346497;28;20240;-67
2022/07/01 00:15:52;;;;;;;0.70;0.43;;;19.70;99.90;;;;;;10352189;28;20214;-67
2022/07/01 00:20:53;;;;;;;3.43;0.43;;;19.60;99.90;;;;;;10346356;28;20228;-66
2022/07/01 00:25:53;;;;;;;2.93;0.50;;;19.50;99.90;;;;;;10351183;28;20228;-67
2022/07/01 00:30:54;;;;;;;1.10;0.47;;;19.50;99.90;;;;;;10324458;28;20236;-68
2022/07/01 00:35:54;;;;;;;1.20;0.50;;;19.40;99.90;;;;;;10346328;28;20229;-68
2022/07/01 00:40:56;;;;;;;1.67;0.40;;;19.30;99.90;;;;;;10341015;28;20225;-67
2022/07/01 00:45:56;;;;;;;0.93;0.37;;;19.10;99.90;;;;;;10352508;28;20305;-66
2022/07/01 00:50:58;;;;;;;1.17;0.50;;;19.00;99.90;;;;;;10331464;28;20240;-68
2022/07/01 00:55:59;;;;;;;0.60;0.40;;;18.90;99.90;;;;;;10333095;28;20245;-67
2022/07/01 01:00:59;;;;;;;1.03;0.40;;;18.70;99.90;;;;;;10314130;28;20636;-67
2022/07/01 01:06:00;;;;;;;3.40;0.70;;;18.70;99.90;;;;;;10339855;28;20239;-66
2022/07/01 01:11:01;;;;;;;0.70;0.40;;;18.60;99.90;;;;;;10331837;28;20241;-66
2022/07/01 01:16:02;;;;;;;0.30;0.30;;;18.50;99.90;;;;;;10344450;28;20225;-66
2022/07/01 01:21:02;;;;;;;1.27;0.57;;;18.50;99.90;;;;;;10340681;28;20221;-67
2022/07/01 01:26:03;;;;;;;0.67;0.40;;;18.50;99.90;;;;;;10335771;28;20240;-66
2022/07/01 01:31:04;;;;;;;1.53;0.40;;;18.30;99.90;;;;;;10341973;28;20241;-66
2022/07/01 01:36:05;;;;;;;1.33;0.70;;;18.30;99.90;;;;;;10348506;28;20372;-67
2022/07/01 01:41:09;;;;;;;1.40;0.60;;;18.20;99.90;;;;;;10338454;28;20305;-67
2022/07/01 01:46:09;;;;;;;1.37;0.60;;;18.10;99.90;;;;;;10338040;28;20229;-66
2022/07/01 01:51:10;;;;;;;1.70;0.90;;;18.00;99.90;;;;;;10322596;28;20698;-66
2022/07/01 01:56:11;;;;;;;0.40;0.30;;;18.00;99.90;;;;;;10339561;28;20225;-66
2022/07/01 02:01:12;;;;;;;0.80;0.43;;;18.00;99.90;;;;;;10349620;28;20220;-66
2022/07/01 02:06:14;;;;;;;1.90;0.40;;;18.00;99.90;;;;;;10339817;28;20218;-66
2022/07/01 02:11:15;;;;;;;1.97;0.50;;;18.00;99.90;;;;;;10343438;28;20234;-68
2022/07/01 02:16:16;;;;;;;3.00;0.47;;;17.90;99.90;;;;;;10342838;28;20708;-67
2022/07/01 02:21:17;;;;;;;0.67;0.50;;;17.90;99.90;;;;;;10336613;28;20229;-66
2022/07/01 02:26:17;;;;;;;2.63;0.50;;;17.90;99.90;;;;;;10345224;28;20698;-66
2022/07/01 02:31:19;;;;;;;2.20;0.50;;;17.90;99.90;;;;;;10321923;28;20607;-66
2022/07/01 02:36:19;;;;;;;0.50;0.50;;;17.90;99.90;;;;;;10349815;28;20235;-66
2022/07/01 02:41:21;;;;;;;1.27;0.47;;;17.90;99.90;;;;;;10333970;28;20217;-66
2022/07/01 02:46:21;;;;;;;1.40;0.70;;;17.80;99.90;;;;;;10331536;28;20224;-66
2022/07/01 02:51:22;;;;;;;2.43;0.60;;;17.80;99.90;;;;;;10328614;28;20232;-68
2022/07/01 02:56:22;;;;;;;1.80;0.80;;;17.90;99.90;;;;;;10343040;28;20221;-67
2022/07/01 03:01:26;;;;;;;2.63;0.60;;;17.90;99.90;;;;;;10318915;28;20275;-67
2022/07/01 03:06:27;;;;;;;1.77;0.70;;;17.90;99.90;;;;;;10333177;28;20226;-68
2022/07/01 03:11:28;;;;;;;2.53;1.00;;;17.80;99.90;;;;;;10341842;28;20240;-67
2022/07/01 03:16:29;;;;;;;2.60;1.10;;;17.90;99.90;;;;;;10342629;28;20220;-66
2022/07/01 03:21:30;;;;;;;0.70;0.60;;;17.80;99.90;;;;;;10331953;28;20251;-66
2022/07/01 03:26:31;;;;;;;3.00;0.73;;;17.80;99.90;;;;;;10345659;28;20315;-67
2022/07/01 03:31:31;;;;;;;6.93;0.80;;;17.90;99.90;;;;;;10340711;28;20597;-66
2022/07/01 03:36:32;;;;;;;2.43;0.80;;;17.80;99.90;;;;;;10336813;28;20240;-66
2022/07/01 03:41:32;;;;;;;1.40;0.73;;;17.70;99.90;;;;;;10312280;28;20593;-66
2022/07/01 03:46:35;;;;;;;0.50;0.50;;;17.70;99.90;;;;;;10333035;28;20727;-66
2022/07/01 03:51:35;;;;;;;2.20;0.40;;;17.60;99.90;;;;;;10336215;28;20225;-67
2022/07/01 03:56:36;;;;;;;1.60;0.50;;;17.60;99.90;;;;;;10339935;28;20227;-66
2022/07/01 04:01:36;;;;;;;1.10;0.60;;;17.50;99.90;;;;;;10350168;28;20251;-67
2022/07/01 04:06:38;;;;;;;2.37;0.67;;;17.50;99.90;;;;;;10350265;28;20249;-69
2022/07/01 04:11:39;;;;;;;1.73;0.50;;;17.50;99.90;;;;;;10333819;28;20236;-68
2022/07/01 04:16:40;;;;;;;2.77;0.73;;;17.40;99.90;;;;;;10325019;28;20224;-68
2022/07/01 04:27:00;;;;;;;1.03;0.70;;;17.60;99.90;;;;;;10353989;28;20214;-67
2022/07/01 04:32:01;;;;;;;4.50;0.73;;;17.60;99.90;;;;;;10343148;28;20232;-68
2022/07/01 04:37:02;;;;;;;3.70;0.70;;;17.60;99.90;;;;;;10346075;28;20225;-69
2022/07/01 04:42:03;;;;;;;1.57;0.77;;;17.60;99.90;;;;;;10337904;28;20279;-68
2022/07/01 04:47:04;;;;;;;1.90;0.80;;;17.60;99.90;;;;;;10337003;28;20307;-69
2022/07/01 04:52:05;;;;;;;1.37;1.00;;;17.60;99.90;;;;;;10341619;28;20229;-67
2022/07/01 04:57:06;;;;;;;1.90;0.90;;;17.70;99.90;;;;;;10337402;28;20290;-67
2022/07/01 05:02:06;;;;;;;0.60;0.60;;;17.70;99.90;;;;;;10340030;28;20226;-67
2022/07/01 05:07:27;;;;;;;3.90;1.00;;;17.70;99.90;;;;;;10342607;28;20621;-68
2022/07/01 05:12:27;;;;;;;1.17;0.80;;;17.70;99.90;;;;;;10340340;28;20256;-66
2022/07/01 05:21:55;;;;;;;2.13;0.73;;;17.70;99.90;;;;;;10354905;28;20707;-68
2022/07/01 05:22:49;;;;;;;2.03;0.70;;;17.70;99.90;;;;;;10333740;28;20237;-66
2022/07/01 05:27:49;;;;;;;2.90;0.90;;;17.80;99.90;;;;;;10340072;28;20610;-68
2022/07/01 05:32:50;;;;;;;3.23;1.07;;;18.00;99.90;;;;;;10336999;28;20236;-68
2022/07/01 05:37:50;;;;;;;2.87;0.80;;;18.40;99.90;;;;;;10332412;28;20283;-68
2022/07/01 05:42:52;;;;;;;0.93;0.83;;;18.60;99.90;;;;;;10334502;28;20235;-68
2022/07/01 05:47:52;;;;;;;3.60;0.80;;;18.80;99.90;;;;;;10330728;28;20307;-70
2022/07/01 05:52:53;;;;;;;2.50;0.90;;;19.00;99.90;;;;;;10350086;28;20343;-69
2022/07/01 05:57:56;;;;;;;1.97;1.30;;;19.70;99.90;;;;;;10334420;28;20239;-68
2022/07/01 06:02:57;;;;;;;3.40;0.63;;;20.00;99.90;;;;;;10363311;28;20229;-68
2022/07/01 06:07:58;;;;;;;1.47;0.70;;;19.80;99.90;;;;;;10325525;28;20231;-66
2022/07/01 06:12:58;;;;;;;2.30;1.10;;;19.80;99.90;;;;;;10344992;28;20585;-67
2022/07/01 06:17:59;;;;;;;2.77;0.90;;;19.50;99.90;;;;;;10329917;28;20240;-67
2022/07/01 06:22:59;;;;;;;2.20;1.17;;;19.40;99.90;;;;;;10328825;28;20214;-68
2022/07/01 06:28:00;;;;;;;0.80;0.80;;;19.30;99.90;;;;;;10330732;28;20226;-68
2022/07/01 06:33:01;;;;;;;2.50;0.93;;;19.50;99.90;;;;;;10326563;28;20256;-67
2022/07/01 06:38:01;;;;;;;1.60;0.80;;;19.70;99.90;;;;;;10320808;28;20591;-67
2022/07/01 06:43:02;;;;;;;1.00;0.87;;;19.80;99.90;;;;;;10336063;28;20222;-68
2022/07/01 06:48:03;;;;;;;4.10;1.13;;;19.90;99.90;;;;;;10334215;28;20283;-68
2022/07/01 06:53:05;;;;;;;2.70;0.97;;;19.80;99.90;;;;;;10338801;28;20268;-68
2022/07/01 06:58:07;;;;;;;2.00;1.00;;;19.60;99.90;;;;;;10345831;28;20233;-67
2022/07/01 07:03:08;;;;;;;3.33;1.33;;;19.70;99.90;;;;;;10314540;28;20711;-69
2022/07/01 07:08:08;;;;;;;2.00;1.50;;;19.80;99.90;;;;;;10327290;28;20325;-67
2022/07/01 07:13:09;;;;;;;2.73;1.30;;;19.70;99.90;;;;;;10341571;28;20716;-67
2022/07/01 07:18:10;;;;;;;2.77;1.23;;;19.70;99.90;;;;;;10339233;28;20519;-68
2022/07/01 07:23:11;;;;;;;3.43;1.60;;;19.50;99.90;;;;;;10333116;28;20228;-68
2022/07/01 07:28:12;;;;;;;2.67;1.30;;;19.30;99.90;;;;;;10340339;28;20226;-68
2022/07/01 07:33:12;;;;;;;4.33;1.67;;;19.00;99.90;;;;;;10347867;28;20312;-68
2022/07/01 07:38:13;;;;;;;2.60;1.80;;;18.80;99.90;;;;;;10343058;28;20355;-69
2022/07/01 07:43:14;;;;;;;3.97;2.00;;;18.60;99.90;;;;;;10350710;28;20227;-69
2022/07/01 07:48:15;;;;;;;4.53;2.13;;;18.40;99.90;;;;;;10356484;28;20224;-69
2022/07/01 07:53:16;;;;;;;5.87;2.10;;;18.30;99.90;;;;;;10354543;28;20240;-69
2022/07/01 07:58:17;;;;;;;2.70;2.00;;;18.20;99.90;;;;;;10358681;28;20224;-69
2022/07/01 08:03:18;;;;;;;5.27;2.20;;;18.20;99.90;;;;;;10349447;28;20229;-70
2022/07/01 08:08:18;;;;;;;4.57;2.53;;;18.40;99.90;;;;;;10350268;28;20232;-68
2022/07/01 08:13:19;;;;;;;4.53;2.00;;;18.50;99.90;;;;;;10347892;28;20233;-69
2022/07/01 08:18:20;;;;;;;3.13;1.80;;;18.60;99.90;;;;;;10348913;28;20259;-69
2022/07/01 08:23:22;;;;;;;4.03;2.00;;;18.70;99.90;;;;;;10349999;28;20243;-69
2022/07/01 08:28:23;;;;;;;3.57;1.60;;;19.00;99.90;;;;;;10337088;28;20221;-69
2022/07/01 08:33:24;;;;;;;3.70;1.50;;;19.10;99.90;;;;;;10317186;28;20264;-68
2022/07/01 08:38:24;;;;;;;4.73;1.90;;;19.10;99.90;;;;;;10342196;28;20245;-69
2022/07/01 08:43:25;;;;;;;4.67;1.60;;;19.10;99.90;;;;;;10346749;28;20233;-68
2022/07/01 08:48:25;;;;;;;4.77;2.07;;;19.30;99.90;;;;;;10352344;28;20218;-69
2022/07/01 08:53:26;;;;;;;3.67;1.50;;;19.40;99.90;;;;;;10340714;28;20316;-68
2022/07/01 08:58:28;;;;;;;2.60;1.63;;;19.70;99.90;;;;;;10340882;28;20230;-68
2022/07/01 09:03:29;;;;;;;2.80;1.50;;;19.80;99.90;;;;;;10343740;28;20241;-68
2022/07/01 09:08:30;;;;;;;3.23;1.23;;;19.80;99.90;;;;;;10358307;28;20268;-68
2022/07/01 09:13:30;;;;;;;2.27;1.33;;;19.90;99.90;;;;;;10344069;28;20222;-68
2022/07/01 09:18:31;;;;;;;2.57;1.40;;;20.00;99.90;;;;;;10316791;28;20217;-69
2022/07/01 09:23:32;;;;;;;1.57;1.37;;;20.00;99.90;;;;;;10356531;28;20609;-69
2022/07/01 09:28:33;;;;;;;3.33;1.57;;;19.80;99.90;;;;;;10336782;28;20229;-69
2022/07/01 09:33:35;;;;;;;2.90;1.50;;;19.40;99.90;;;;;;10339972;28;20591;-68
2022/07/01 09:38:45;;;;;;;1.40;1.13;;;19.30;99.90;;;;;;10338076;28;20285;-68
2022/07/01 09:43:46;;;;;;;4.13;1.07;;;19.40;99.90;;;;;;10347586;28;20218;-69
2022/07/01 09:48:47;;;;;;;2.70;1.57;;;19.70;99.90;;;;;;10335453;28;20222;-69
2022/07/01 09:53:47;;;;;;;3.30;1.50;;;20.10;99.90;;;;;;10345020;28;20371;-69
2022/07/01 09:58:48;;;;;;;2.40;1.27;;;20.90;99.90;;;;;;10348973;28;20249;-69
2022/07/01 10:03:51;;;;;;;3.33;0.90;;;22.40;99.90;;;;;;10335249;28;20223;-69
2022/07/01 10:09:04;;;;;;;3.20;1.30;;;24.40;99.90;;;;;;10333484;28;20705;-69
2022/07/01 10:14:06;;;;;;;1.57;0.90;;;25.60;99.40;;;;;;10327354;28;20356;-68
2022/07/01 10:19:25;;;;;;;2.50;1.20;;;26.40;94.50;;;;;;10308088;28;20229;-67
2022/07/01 10:24:27;;;;;;;4.57;1.23;;;25.90;91.90;;;;;;10341409;28;20219;-68
2022/07/01 10:29:38;;;;;;;3.53;1.30;;;25.90;92.20;;;;;;10344021;28;20221;-69
2022/07/01 10:34:41;;;;;;;2.23;1.00;;;26.70;86.30;;;;;;10313618;28;20217;-69
2022/07/01 10:39:53;;;;;;;1.47;0.90;;;27.50;79.70;;;;;;10343168;28;20738;-69
2022/07/01 10:45:01;;;;;;;2.33;1.03;;;27.70;75.40;;;;;;10333897;28;20222;-69
2022/07/01 10:50:16;;;;;;;1.80;0.87;;;27.40;76.00;;;;;;10342177;28;20245;-68
2022/07/01 10:55:17;;;;;;;4.47;1.10;;;28.30;70.40;;;;;;10334869;28;20222;-69
2022/07/01 11:00:20;;;;;;;3.60;1.10;;;29.20;64.00;;;;;;10345751;28;20228;-69
2022/07/01 11:05:22;;;;;;;2.60;1.00;;;28.50;63.90;;;;;;10342227;28;20236;-69
2022/07/01 11:10:22;;;;;;;1.50;1.00;;;28.10;62.60;;;;;;10331906;28;20224;-69
2022/07/01 11:15:23;;;;;;;4.00;0.97;;;27.40;66.60;;;;;;10320098;28;20190;-70
2022/07/01 11:20:27;;;;;;;1.87;1.10;;;29.10;61.20;;;;;;10340863;28;20245;-69
2022/07/01 11:25:29;;;;;;;5.53;1.07;;;32.30;54.40;;;;;;10336867;28;20232;-69
2022/07/01 11:30:30;;;;;;;1.93;1.10;;;33.50;48.00;;;;;;10343832;28;20667;-68
2022/07/01 11:40:54;;;;;;;4.03;1.17;;;36.80;40.40;;;;;;10333099;28;20316;-69
2022/07/01 11:45:59;;;;;;;2.67;1.00;;;35.50;38.80;;;;;;10329346;28;20246;-68
2022/07/01 11:51:04;;;;;;;3.97;1.43;;;32.20;43.20;;;;;;10345978;28;20236;-68
2022/07/01 11:56:05;;;;;;;2.20;0.90;;;30.10;48.50;;;;;;10341338;28;20236;-69
2022/07/01 12:01:08;;;;;;;1.93;0.90;;;28.40;51.50;;;;;;10321202;28;20573;-69
2022/07/01 12:06:08;;;;;;;3.03;0.80;;;27.30;53.70;;;;;;10331349;28;20276;-68
2022/07/01 12:11:09;;;;;;;3.33;0.90;;;26.80;55.00;;;;;;10327882;28;20232;-70
2022/07/01 12:16:11;;;;;;;1.40;0.70;;;26.80;55.40;;;;;;10326895;28;20317;-69
2022/07/01 12:21:12;;;;;;;1.97;0.90;;;26.50;55.60;;;;;;10334228;28;20223;-69
2022/07/01 12:26:12;;;;;;;1.40;1.00;;;26.20;55.90;;;;;;10328852;28;20333;-68
2022/07/01 12:31:13;;;;;;;1.40;0.70;;;26.10;56.20;;;;;;10327363;28;20239;-68
2022/07/01 12:36:15;;;;;;;2.30;1.10;;;26.20;56.90;;;;;;10339395;28;20229;-69
2022/07/01 12:41:33;;;;;;;2.87;0.97;;;26.00;57.10;;;;;;10332432;28;20232;-68
2022/07/01 12:46:34;;;;;;;1.67;0.87;;;25.70;57.70;;;;;;10336205;28;20223;-69
2022/07/01 12:51:35;;;;;;;3.17;0.90;;;25.40;58.60;;;;;;10344270;28;20256;-69
2022/07/01 12:56:36;;;;;;;2.17;0.83;;;25.30;59.90;;;;;;10334409;28;20218;-69
2022/07/01 13:01:36;;;;;;;2.50;1.00;;;24.90;60.80;;;;;;10326208;28;20654;-68
2022/07/01 13:06:37;;;;;;;3.63;0.90;;;24.80;61.30;;;;;;10331784;28;20225;-70
2022/07/01 13:11:38;;;;;;;1.47;0.80;;;24.90;61.10;;;;;;10348458;28;20327;-68
2022/07/01 13:16:38;;;;;;;2.77;0.80;;;25.10;60.80;;;;;;10335591;28;20345;-69
2022/07/01 13:21:40;;;;;;;1.70;0.90;;;25.00;60.60;;;;;;10327371;28;20229;-69
2022/07/01 13:26:41;;;;;;;1.17;0.70;;;25.00;61.90;;;;;;10346365;28;20218;-68
2022/07/01 13:31:41;;;;;;;3.40;0.70;;;25.20;61.10;;;;;;10339752;28;20226;-69
2022/07/01 13:36:42;;;;;;;1.20;0.87;;;25.40;59.20;;;;;;10312615;28;20226;-69
2022/07/01 13:41:43;;;;;;;2.10;0.70;;;25.50;60.40;;;;;;10341006;28;20234;-69
2022/07/01 13:46:43;;;;;;;2.30;1.03;;;25.70;60.40;;;;;;10341755;28;20270;-69
2022/07/01 13:51:44;;;;;;;1.47;0.70;;;25.90;59.40;;;;;;10344846;28;20769;-69
2022/07/01 13:56:45;;;;;;;1.33;0.87;;;25.90;58.40;;;;;;10334494;28;20639;-69
2022/07/01 14:01:46;;;;;;;2.90;0.70;;;25.80;59.60;;;;;;10344380;28;20220;-68
2022/07/01 14:06:46;;;;;;;2.13;0.83;;;25.40;59.90;;;;;;10333776;28;20565;-69
2022/07/01 14:11:47;;;;;;;1.57;1.13;;;25.00;60.40;;;;;;10348216;28;20249;-68
2022/07/01 14:16:48;;;;;;;2.93;1.07;;;24.70;64.40;;;;;;10332164;28;20223;-69
2022/07/01 14:21:49;;;;;;;0.83;0.70;;;24.30;65.80;;;;;;10347214;28;20835;-69
2022/07/01 14:26:49;;;;;;;2.17;0.80;;;24.00;68.90;;;;;;10310887;28;20857;-69
2022/07/01 14:31:50;;;;;;;2.63;0.70;;;23.90;71.00;;;;;;10329063;28;20233;-69
2022/07/01 14:36:50;;;;;;;2.57;0.90;;;24.00;70.30;;;;;;10326155;28;20228;-68
2022/07/01 14:41:52;;;;;;;1.13;0.87;;;24.30;69.10;;;;;;10347541;28;20217;-68
2022/07/01 14:46:53;;;;;;;1.03;0.63;;;24.60;67.60;;;;;;10324035;28;20222;-69
2022/07/01 14:51:54;;;;;;;1.30;0.90;;;24.70;65.60;;;;;;10349282;28;20284;-68
2022/07/01 14:56:55;;;;;;;1.43;1.10;;;24.00;67.30;;;;;;10315270;28;20631;-68
2022/07/01 15:02:00;;;;;;;2.03;0.90;;;23.40;69.90;;;;;;10339083;28;20298;-69
2022/07/01 15:07:01;;;;;;;4.73;1.50;;;22.60;72.50;;;;;;10325096;28;20225;-69
2022/07/01 15:12:01;;;;;;;2.70;1.47;;;22.10;75.10;;;;;;10331294;28;20228;-68
2022/07/01 15:17:02;;;;;;;1.97;1.47;;;21.80;77.40;;;;;;10333401;28;20619;-70
2022/07/01 15:22:03;;;;;;;1.80;1.47;;;21.70;78.70;;;;;;10334350;28;20706;-69
2022/07/01 15:27:04;;;;;;;3.33;1.37;;;22.00;78.70;;;;;;10346424;28;20232;-69
2022/07/01 15:32:06;;;;;;;5.40;1.77;;;22.10;78.70;;;;;;10334667;28;20755;-70
2022/07/01 15:37:06;;;;;;;2.10;1.13;;;22.40;76.50;;;;;;10337887;28;20647;-69
2022/07/01 15:42:07;;;;;;;1.70;0.90;;;22.70;75.70;;;;;;10349931;28;20213;-69
2022/07/01 15:52:30;;;;;;;2.07;1.37;;;23.00;75.00;;;;;;10347485;28;20225;-69
2022/07/01 15:57:30;;;;;;;4.87;1.37;;;23.30;73.20;;;;;;10334007;28;20692;-69
2022/07/01 16:02:31;;;;;;;3.23;1.13;;;23.80;71.70;;;;;;10331958;28;20288;-68
2022/07/01 16:07:35;;;;;;;3.83;1.50;;;23.70;71.30;;;;;;10325139;28;20293;-68
2022/07/01 16:12:36;;;;;;;1.20;1.00;;;23.60;71.30;;;;;;10323761;28;20767;-68
2022/07/01 16:17:37;;;;;;;1.90;1.10;;;23.60;72.20;;;;;;10351218;28;20273;-68
2022/07/01 16:22:38;;;;;;;2.93;1.43;;;23.70;72.20;;;;;;10333200;28;20269;-68
2022/07/01 16:27:38;;;;;;;2.20;1.30;;;23.80;70.80;;;;;;10354290;28;20253;-69
2022/07/01 16:32:43;;;;;;;1.37;1.10;;;23.40;71.30;;;;;;10348637;28;20229;-69
2022/07/01 16:37:53;;;;;;;3.33;1.20;;;23.00;72.80;;;;;;10338504;28;20222;-70
2022/07/01 16:42:53;;;;;;;2.80;1.60;;;22.90;72.40;;;;;;10353114;28;20724;-69
2022/07/01 16:47:56;;;;;;;2.80;1.80;;;22.80;74.30;;;;;;10324598;28;20309;-70
2022/07/01 16:52:57;;;;;;;1.40;1.30;;;22.70;74.60;;;;;;10345050;28;20245;-70
2022/07/01 16:58:03;;;;;;;3.10;1.20;;;22.60;72.70;;;;;;10331761;28;20227;-70
2022/07/01 17:03:04;;;;;;;1.40;1.20;;;22.70;71.60;;;;;;10331927;28;20290;-70
2022/07/01 17:08:07;;;;;;;2.57;1.57;;;22.90;71.20;;;;;;10354161;28;20221;-70
2022/07/01 17:13:10;;;;;;;3.27;1.50;;;22.90;71.10;;;;;;10347364;28;20230;-71
2022/07/01 17:18:10;;;;;;;3.87;2.37;;;22.70;71.20;;;;;;10332238;28;20230;-70
2022/07/01 17:23:23;;;;;;;3.40;1.70;;;22.40;73.50;;;;;;10339841;28;20604;-69
2022/07/01 17:28:51;;;;;;;1.20;1.03;;;22.10;74.50;;;;;;10292903;28;20214;-70
2022/07/01 17:33:54;;;;;;;1.47;0.93;;;22.10;74.70;;;;;;10325757;28;20230;-70
2022/07/01 17:39:09;;;;;;;3.03;1.50;;;22.20;74.50;;;;;;10341381;28;20341;-70
2022/07/01 17:44:13;;;;;;;2.03;1.23;;;22.20;73.90;;;;;;10344670;28;20213;-70
2022/07/01 17:49:19;;;;;;;1.60;1.00;;;22.10;73.90;;;;;;10336917;28;20233;-69
2022/07/01 17:54:22;;;;;;;1.80;1.33;;;22.00;73.70;;;;;;10347986;28;20306;-69
2022/07/01 17:59:26;;;;;;;2.97;1.20;;;21.90;74.50;;;;;;10345431;28;20222;-70
2022/07/01 18:04:28;;;;;;;4.20;1.40;;;21.80;74.80;;;;;;10338541;28;20222;-69
2022/07/01 18:09:28;;;;;;;2.07;1.50;;;21.80;75.60;;;;;;10335756;28;20230;-70
2022/07/01 18:14:35;;;;;;;3.03;1.03;;;21.70;76.80;;;;;;10346599;28;20221;-69
2022/07/01 18:19:47;;;;;;;3.67;1.03;;;21.50;77.20;;;;;;10329633;28;20241;-70
2022/07/01 18:24:52;;;;;;;1.47;1.20;;;21.30;78.10;;;;;;10326814;28;20228;-69
2022/07/01 18:30:01;;;;;;;2.23;1.20;;;21.10;79.60;;;;;;10325101;28;20741;-70
2022/07/01 18:35:07;;;;;;;2.20;1.07;;;21.00;80.20;;;;;;10326472;28;20311;-70
2022/07/01 18:40:08;;;;;;;1.83;1.60;;;20.90;81.10;;;;;;10325360;28;20589;-69
2022/07/01 18:45:11;;;;;;;3.07;1.17;;;20.90;82.40;;;;;;10332497;28;20205;-70
2022/07/01 18:50:12;;;;;;;3.23;1.33;;;21.00;82.00;;;;;;10337428;28;20260;-69
2022/07/01 18:55:13;;;;;;;1.77;1.00;;;21.10;82.30;;;;;;10338797;28;20201;-70
2022/07/01 19:00:19;;;;;;;2.50;1.20;;;21.10;82.40;;;;;;10319450;28;20537;-70
2022/07/01 19:05:20;;;;;;;2.40;0.90;;;21.10;81.60;;;;;;10349377;28;20196;-70
2022/07/01 19:10:21;;;;;;;2.20;0.90;;;21.10;81.80;;;;;;10332831;28;20222;-69
2022/07/01 19:15:22;;;;;;;4.77;1.27;;;21.00;83.20;;;;;;10340282;28;20601;-70
2022/07/01 19:20:23;;;;;;;1.23;0.90;;;20.90;84.10;;;;;;10342617;28;20630;-70
2022/07/01 19:25:23;;;;;;;1.73;1.00;;;20.70;84.80;;;;;;10311367;28;20268;-71
2022/07/01 19:30:24;;;;;;;1.00;0.90;;;20.60;86.10;;;;;;10327659;28;20295;-70
2022/07/01 19:35:25;;;;;;;4.13;0.80;;;20.50;87.00;;;;;;10348930;28;20221;-70
2022/07/01 19:40:26;;;;;;;4.60;0.87;;;20.40;88.20;;;;;;10340339;28;20236;-70
2022/07/01 19:45:27;;;;;;;1.07;0.80;;;20.30;89.00;;;;;;10346067;28;20247;-69
2022/07/01 19:50:27;;;;;;;2.60;1.00;;;20.20;90.00;;;;;;10327622;28;20326;-70
2022/07/01 19:55:28;;;;;;;3.07;1.00;;;20.20;90.00;;;;;;10346961;28;20605;-69
2022/07/01 20:00:29;;;;;;;2.70;0.67;;;20.20;90.40;;;;;;10348910;28;20216;-69
2022/07/01 20:05:29;;;;;;;2.00;1.40;;;20.20;90.60;;;;;;10323810;28;20229;-69
2022/07/01 20:10:32;;;;;;;1.33;1.00;;;20.10;91.10;;;;;;10350862;28;20237;-69
2022/07/01 20:15:33;;;;;;;2.03;1.07;;;20.10;91.60;;;;;;10337855;28;20245;-70
2022/07/01 20:20:33;;;;;;;5.93;4.33;;;20.00;92.10;;;;;;10340269;28;20661;-70
2022/07/01 20:25:34;;;;;;;2.67;1.90;;;20.00;92.50;;;;;;10350300;28;20231;-70
2022/07/01 20:30:34;;;;;;;2.03;0.97;;;19.80;93.20;;;;;;10341585;28;20233;-70
2022/07/01 20:35:35;;;;;;;1.50;1.00;;;19.60;94.00;;;;;;10329077;28;20228;-70
2022/07/01 20:40:36;;;;;;;4.40;1.10;;;19.40;95.00;;;;;;10336723;28;20243;-70
2022/07/01 20:45:36;;;;;;;2.67;1.50;;;19.20;96.30;;;;;;10311271;28;20224;-71
2022/07/01 20:50:37;;;;;;;1.47;1.00;;;19.00;97.50;;;;;;10355496;28;20231;-70
2022/07/01 20:55:38;;;;;;;1.20;1.10;;;18.90;98.70;;;;;;10316760;28;20225;-70
2022/07/01 21:00:38;;;;;;;2.20;1.20;;;18.70;99.90;;;;;;10325851;28;20232;-70
2022/07/01 21:05:39;;;;;;;2.93;1.17;;;18.50;99.90;;;;;;10322207;28;20236;-70
2022/07/01 21:10:39;;;;;;;2.87;1.13;;;18.50;99.90;;;;;;10334773;28;20239;-70
2022/07/01 21:15:40;;;;;;;1.23;1.13;;;18.40;99.90;;;;;;10328962;28;20233;-70
2022/07/01 21:20:41;;;;;;;1.60;1.00;;;18.30;99.90;;;;;;10348464;28;20227;-69
2022/07/01 21:25:42;;;;;;;4.87;1.30;;;18.20;99.90;;;;;;10325780;28;20232;-70
2022/07/01 21:30:42;;;;;;;2.07;1.30;;;18.20;99.90;;;;;;10344218;28;20306;-69
2022/07/01 21:35:43;;;;;;;2.70;1.50;;;18.20;99.90;;;;;;10344473;28;20228;-70
2022/07/01 21:40:44;;;;;;;2.20;1.10;;;18.10;99.90;;;;;;10348517;28;20216;-70
2022/07/01 21:45:45;;;;;;;2.23;1.30;;;18.10;99.90;;;;;;10326574;28;20216;-69
2022/07/01 21:50:46;;;;;;;2.77;1.17;;;18.00;99.90;;;;;;10330135;28;20243;-69
2022/07/01 21:55:49;;;;;;;2.37;1.67;;;17.90;99.90;;;;;;10334532;28;20670;-69
2022/07/01 22:00:50;;;;;;;2.90;1.27;;;17.90;99.90;;;;;;10343327;28;20224;-69
2022/07/01 22:11:12;;;;;;;3.10;1.50;;;17.70;99.90;;;;;;10331815;28;20236;-69
2022/07/01 22:16:15;;;;;;;1.93;1.20;;;17.50;99.90;;;;;;10317120;28;20653;-70
2022/07/01 22:21:17;;;;;;;1.70;1.60;;;17.40;99.90;;;;;;10317935;28;20299;-70
2022/07/01 22:26:18;;;;;;;2.40;1.70;;;17.30;99.90;;;;;;10338967;28;20613;-70
2022/07/01 22:31:19;;;;;;;2.30;1.20;;;17.30;99.90;;;;;;10340950;28;20240;-69
2022/07/01 22:36:20;;;;;;;4.10;1.60;;;17.20;99.90;;;;;;10328452;28;20238;-69
2022/07/01 22:41:21;;;;;;;2.17;1.53;;;17.20;99.90;;;;;;10350323;28;20228;-69
2022/07/01 22:46:48;;;;;;;3.03;1.50;;;17.10;99.90;;;;;;10323358;28;20228;-69
2022/07/01 22:52:25;;;;;;;2.00;1.43;;;17.10;99.90;;;;;;10342730;28;20231;-69
2022/07/01 22:58:03;;;;;;;1.70;1.60;;;17.00;99.90;;;;;;10336045;28;20711;-69
2022/07/01 23:03:07;;;;;;;2.23;1.60;;;17.00;99.90;;;;;;10337775;28;20230;-69
2022/07/01 23:08:17;;;;;;;2.50;1.60;;;16.90;99.90;;;;;;10352374;28;20710;-69
2022/07/01 23:13:23;;;;;;;1.60;1.40;;;16.80;99.90;;;;;;10336105;28;20315;-69
2022/07/01 23:18:26;;;;;;;4.60;1.73;;;16.70;99.90;;;;;;10327613;28;20256;-70
2022/07/01 23:23:27;;;;;;;2.13;1.83;;;16.70;99.90;;;;;;10343597;28;20275;-69
2022/07/01 23:28:29;;;;;;;2.13;1.63;;;16.60;99.90;;;;;;10342622;28;20217;-71
2022/07/01 23:33:32;;;;;;;1.97;1.47;;;16.50;99.90;;;;;;10345432;28;20236;-69
2022/07/01 23:38:34;;;;;;;3.23;1.90;;;16.40;99.90;;;;;;10338818;28;20233;-69
2022/07/01 23:43:34;;;;;;;2.97;1.60;;;16.30;99.90;;;;;;10341787;28;20231;-69
2022/07/01 23:48:35;;;;;;;1.90;1.43;;;16.20;99.90;;;;;;10335501;28;20303;-70
2022/07/01 23:53:36;;;;;;;4.77;2.13;;;16.20;99.90;;;;;;10345125;28;20926;-69
2022/07/01 23:58:36;;;;;;;4.67;1.80;;;16.20;99.90;;;;;;10323943;28;20261;-69
